Higgins, Oklahoma
Current Conditions -  °F | °C
As of 6:53 PM on Wednesday 17 Dec 2014 (Local Time) from KMLC Reporting Station
Moderate Rain Moderate Rain  
Wind Chill: 34°   Ceiling: 5000
Heat Index: 38°   Visibility: 6mi
Dew Point: 36°   Wind: 5mph
Humidity: 93%   Direction: 70°ENE
Pressure: 30.2"   Gusts: NA
Location:  34.8806°N, 95.3086°W
Report Text: KMLC 180053Z AUTO 07004KT 6SM RA BR OVC050 03/02 A3020 RMK AO2 SLP231 P0016 T00330022
Loading
Personal Weather Stations






























Interactive Weather Map New forecast layout! Learn more

10-Day Weather Forecast

Advertisements
Track Severe Weather on mobile